• Join FlightAware (Why Join?)
  • Login
  • US Flag 
10:56PM EST


 

Airport Tracker/Info


-or-


 

Live Flight TrackerFlight Track Log ✈ DAL268 ✈ 24-May-2013 ✈ KJFK - LLBG / TLV

Flight Track Log - Related Links

Times and Time Zones

All times are in EDT time to prevent confusion due to time zone crossing. See the DAL268 flight status page for this flight to view local times or setup timezone preferences in your user account.

Time Position Orientation Groundspeed Altitude Reporting Facility
EDT Latitude Longitude Course Direction KTS MPH feet Rate Location/Type
11:46PM 40.6380 -73.7790 North  Level FlightAware
11:47PM 40.6370 -73.7790 180° South 12 14  Level FlightAware
11:50PM 40.5833 -73.3303 90° East  Level FlightAware Approximate
11:51PM 40.5593 -73.1519 97° East  Level FlightAware Approximate
11:52PM 40.5638 -72.9725 57° Northeast  Level FlightAware Approximate
11:52PM 40.6360 -73.7790 57° Northeast 10 12  Level FlightAware
11:53PM 40.6360 -73.7780 90° East 17 20 60 Level FlightAware
11:53PM 40.6350 -73.7770 143° Southeast 16 18 60 Level FlightAware
11:54PM 40.6360 -73.7760 37° Northeast 18 21 60 Level FlightAware
11:54PM 40.6360 -73.7750 90° East 18 21 60 Level FlightAware
11:55PM 40.6350 -73.7730 123° Southeast 22 25 60 Level FlightAware
11:56PM 40.6340 -73.7710 123° Southeast 20 23 60 Level FlightAware
11:57PM 40.6330 -73.7700 143° Southeast 20 23 120 Level FlightAware
11:58PM 40.6300 -73.7700 180° South 30 35 120 Level FlightAware
11:58PM 40.6290 -73.7720 237° Southwest 25 29 180 Level FlightAware
11:59PM 40.6290 -73.7730 270° West 25 29 300 Level FlightAware
12:00AM 40.6420 -73.8020 301° West 165 190 500 1,200 Climbing FlightAware
12:00AM 40.6460 -73.8200 286° West 160 184 1,400 1,680 Climbing FlightAware
12:01AM 40.6310 -73.8580 243° Southwest 227 261 2,100 1,380 Climbing FlightAware
12:01AM 40.6220 -73.8720 230° Southwest 241 277 2,500 1,080 Climbing FlightAware
12:01AM 40.6090 -73.8900 226° Southwest 265 305 2,600 600 Climbing FlightAware
12:02AM 40.5950 -73.8990 206° Southwest 286 329 2,800 1,200 Climbing FlightAware
12:02AM 40.5780 -73.9010 185° South 303 349 3,100 2,100 Climbing FlightAware
12:02AM 40.5430 -73.8920 169° South 306 352 4,200 2,220 Climbing FlightAware
12:02AM 40.5189 -73.8706 146° Southeast 305 351 4,800 2,280 Climbing FlightAware ADS-B
12:03AM 40.5180 -73.8692 130° Southeast 308 354 4,900 3,600 Climbing FlightAware ADS-B
12:03AM 40.5152 -73.8633 122° Southeast 304 350 5,100 3,420 Climbing FlightAware ADS-B
12:03AM 40.5127 -73.8586 125° Southeast 299 344 5,300 3,960 Climbing FlightAware ADS-B
12:03AM 40.5109 -73.8540 117° Southeast 294 338 5,500 3,660 Climbing FlightAware ADS-B
12:03AM 40.5072 -73.8390 108° East 286 329 6,100 2,760 Climbing FlightAware ADS-B
12:03AM 40.5065 -73.8287 95° East 288 331 6,200 1,500 Climbing FlightAware ADS-B
12:03AM 40.5064 -73.8232 91° East 291 335 6,300 1,800 Climbing FlightAware ADS-B
12:03AM 40.5077 -73.8108 82° East 297 342 6,500 1,980 Climbing FlightAware ADS-B
12:03AM 40.5095 -73.8021 75° East 300 345 6,700 3,000 Climbing FlightAware ADS-B
12:03AM 40.5143 -73.7793 75° East 297 342 7,400 2,760 Climbing FlightAware ADS-B
12:04AM 40.5192 -73.7453 79° East 302 348 8,200 2,460 Climbing FlightAware ADS-B
12:04AM 40.5214 -73.7178 84° East 306 352 8,800 2,460 Climbing FlightAware ADS-B
12:04AM 40.5227 -73.6879 87° East 309 356 9,500 2,460 Climbing FlightAware ADS-B
12:05AM 40.5264 -73.6315 85° East 315 362 10,700 1,920 Climbing FlightAware ADS-B
12:05AM 40.5301 -73.5674 86° East 337 388 11,500 1,620 Climbing FlightAware ADS-B
12:06AM 40.5334 -73.5046 86° East 354 407 12,400 1,560 Climbing FlightAware ADS-B
12:06AM 40.5374 -73.4359 86° East 377 434 13,100 1,920 Climbing FlightAware ADS-B
12:07AM 40.5414 -73.3636 86° East 384 442 14,400 2,700 Climbing FlightAware ADS-B
12:07AM 40.5451 -73.2945 86° East 379 436 15,900 2,760 Climbing FlightAware ADS-B
12:08AM 40.5481 -73.2440 86° East 379 436 16,800 2,400 Climbing FlightAware ADS-B
12:08AM 40.5512 -73.2232 79° East 387 445 17,100 1,980 Climbing FlightAware ADS-B
12:08AM 40.5568 -73.2029 70° East 397 457 17,400 1,860 Climbing FlightAware ADS-B
12:08AM 40.5685 -73.1748 61° Northeast 407 468 17,800 2,220 Climbing FlightAware ADS-B
12:08AM 40.5719 -73.1686 54° Northeast 411 473 18,000 2,160 Climbing FlightAware ADS-B
12:08AM 40.5811 -73.1549 49° Northeast 416 479 18,200 1,680 Climbing FlightAware ADS-B
12:08AM 40.5895 -73.1421 49° Northeast 421 484 18,400 1,860 Climbing FlightAware ADS-B
12:09AM 40.6092 -73.1222 37° Northeast 432 497 18,800 1,020 Climbing FlightAware ADS-B
12:09AM 40.6560 -73.0799 34° Northeast 452 520 19,100 840 Climbing FlightAware ADS-B
12:10AM 40.7079 -73.0297 36° Northeast 466 536 19,600 840 Climbing FlightAware ADS-B
12:10AM 40.7586 -72.9736 40° Northeast 481 554 20,000 1,080 Climbing FlightAware ADS-B
12:11AM 40.8092 -72.9148 41° Northeast 490 564 20,700 1,380 Climbing FlightAware ADS-B
12:11AM 40.8611 -72.8524 42° Northeast 499 574 21,400 1,320 Climbing FlightAware ADS-B
12:12AM 40.9230 -72.7781 42° Northeast 507 583 22,200 1,320 Climbing FlightAware ADS-B
12:12AM 40.9758 -72.7153 42° Northeast 515 593 22,900 1,440 Climbing FlightAware ADS-B
12:13AM 41.0322 -72.6493 41° Northeast 520 598 23,700 1,260 Climbing FlightAware ADS-B
12:13AM 41.1000 -72.5670 42° Northeast 528 608 24,400 960 Climbing FlightAware
12:14AM 41.1710 -72.4830 42° Northeast 542 624 25,000 1,080 Climbing FlightAware
12:15AM 41.2420 -72.3950 43° Northeast 548 631 25,900 1,260 Climbing FlightAware
12:15AM 41.3230 -72.2970 42° Northeast 555 639 26,700 1,200 Climbing FlightAware
12:16AM 41.4100 -72.1930 42° Northeast 561 646 27,600 1,080 Climbing FlightAware
12:17AM 41.4860 -72.1010 42° Northeast 567 652 28,300 1,380 Climbing FlightAware
12:18AM 41.5740 -71.9930 43° Northeast 562 647 29,600 1,500 Climbing FlightAware
12:18AM 41.6490 -71.9010 42° Northeast 559 643 30,500 960 Climbing FlightAware
12:19AM 41.7350 -71.7940 43° Northeast 557 641 31,000 300 Climbing FlightAware
12:20AM 41.8090 -71.7050 42° Northeast 556 640 31,000  Level FlightAware
12:20AM 41.9030 -71.5850 44° Northeast 555 639 31,000  Level FlightAware
12:21AM 41.9810 -71.4890 42° Northeast 554 638 31,000  Level FlightAware
12:22AM 42.0530 -71.4000 43° Northeast 555 639 31,000  Level FlightAware
12:23AM 42.1440 -71.2870 43° Northeast 556 640 31,000  Level FlightAware
12:23AM 42.2200 -71.1890 44° Northeast 552 635 31,000  Level FlightAware
12:24AM 42.2990 -71.0890 43° Northeast 553 636 31,000  Level FlightAware
12:25AM 42.3700 -71.0010 42° Northeast 557 641 31,000  Level FlightAware
12:25AM 42.4630 -70.8820 43° Northeast 554 638 31,000  Level FlightAware
12:26AM 42.5360 -70.7870 44° Northeast 551 634 31,000  Level FlightAware
12:27AM 42.6200 -70.6800 43° Northeast 550 633 31,000  Level FlightAware
12:28AM 42.7010 -70.5750 44° Northeast 549 632 31,000  Level FlightAware
12:28AM 42.7740 -70.4820 43° Northeast 549 632 31,000  Level FlightAware
12:29AM 42.8540 -70.3770 44° Northeast 548 631 31,000  Level FlightAware
12:30AM 42.9390 -70.2670 43° Northeast 550 633 31,000  Level FlightAware
12:31AM 43.0320 -70.1470 43° Northeast 550 633 31,000  Level FlightAware
12:31AM 43.0870 -70.0720 45° Northeast 545 627 31,000  Level FlightAware
12:32AM 43.1800 -69.9510 43° Northeast 545 627 31,000  Level FlightAware
12:33AM 43.2610 -69.8420 44° Northeast 550 633 31,000  Level FlightAware
12:33AM 43.3300 -69.7520 43° Northeast 545 627 31,000  Level FlightAware
12:34AM 43.4290 -69.6210 44° Northeast 547 629 31,000  Level FlightAware
12:35AM 43.5050 -69.5200 44° Northeast 547 629 31,000  Level FlightAware
12:36AM 43.6150 -69.3720 44° Northeast 551 634 31,000  Level FlightAware
12:37AM 43.6930 -69.2640 45° Northeast 558 642 31,000  Level FlightAware
12:37AM 43.7700 -69.1620 44° Northeast 559 643 31,000  Level FlightAware
12:38AM 43.8330 -69.0760 45° Northeast 553 636 31,000  Level FlightAware
12:39AM 43.9260 -68.9480 45° Northeast 560 644 31,000 120 Level FlightAware
12:39AM 44.0070 -68.8370 45° Northeast 563 648 31,200 600 Climbing FlightAware
12:40AM 44.0820 -68.7350 44° Northeast 566 651 31,900 960 Climbing FlightAware
12:41AM 44.1670 -68.6160 45° Northeast 569 655 32,600 780 Climbing FlightAware
12:41AM 44.2380 -68.5180 45° Northeast 569 655 33,000 240 Climbing FlightAware
12:42AM 44.3240 -68.3990 45° Northeast 568 654 33,000  Level FlightAware
12:43AM 44.3950 -68.3000 45° Northeast 568 654 33,000  Level FlightAware
12:43AM 44.4450 -68.2300 45° Northeast 567 652 33,000  Level FlightAware
12:44AM 44.4750 -68.1850 47° Northeast 567 652 33,000  Level FlightAware
12:44AM 44.5580 -68.0710 44° Northeast 567 652 33,000  Level FlightAware
12:45AM 44.6220 -67.9790 46° Northeast 567 652 33,000  Level FlightAware
12:46AM 44.7340 -67.8190 45° Northeast 569 655 33,000  Level FlightAware
12:47AM 44.8180 -67.7000 45° Northeast 570 656 33,000  Level FlightAware
12:47AM 44.8940 -67.5910 45° Northeast 570 656 33,000  Level FlightAware
12:48AM 44.9540 -67.5040 46° Northeast 570 656 33,000  Level FlightAware
12:49AM 45.0330 -67.3890 46° Northeast 570 656 33,000  Level FlightAware
12:49AM 45.1190 -67.2630 46° Northeast 565 650 33,000  Level FlightAware
12:50AM 45.1990 -67.1480 45° Northeast 570 656 33,000  Level FlightAware
12:51AM 45.2760 -67.0350 46° Northeast 564 649 33,000  Level FlightAware
12:52AM 45.3480 -66.9300 46° Northeast 565 650 33,000  Level FlightAware
12:52AM 45.4200 -66.8220 46° Northeast 563 648 33,000  Level FlightAware
12:53AM 45.5040 -66.6980 46° Northeast 563 648 33,000  Level FlightAware
12:54AM 45.5760 -66.5920 46° Northeast 563 648 33,000  Level FlightAware
12:54AM 45.6580 -66.4670 47° Northeast 561 646 33,000  Level FlightAware
12:55AM 45.7590 -66.3160 46° Northeast 566 651 33,000  Level FlightAware
12:56AM 45.8420 -66.1900 47° Northeast 567 652 33,000  Level FlightAware
12:57AM 45.9140 -66.0810 46° Northeast 568 654 33,000  Level FlightAware
12:58AM 46.0090 -65.9350 47° Northeast 568 654 33,000  Level FlightAware
12:58AM 46.0750 -65.8360 46° Northeast 567 652 33,000  Level FlightAware
12:59AM 46.1700 -65.6910 47° Northeast 566 651 33,000  Level FlightAware
01:00AM 46.2440 -65.5790 46° Northeast 566 651 33,000  Level FlightAware
01:01AM 46.2980 -65.4980 46° Northeast 566 651 33,000  Level FlightAware
01:01AM 46.3730 -65.3870 46° Northeast 566 651 33,000  Level FlightAware
01:02AM 46.4300 -65.3010 46° Northeast 566 651 33,000  Level FlightAware
01:03AM 46.5060 -65.1870 46° Northeast 566 651 33,000  Level FlightAware
01:03AM 46.5630 -65.1010 46° Northeast 566 651 33,000  Level FlightAware
01:04AM 46.6380 -64.9870 46° Northeast 566 651 33,000  Level FlightAware
01:05AM 46.6970 -64.8980 46° Northeast 566 651 33,000  Level FlightAware
01:05AM 46.7560 -64.8090 46° Northeast 566 651 33,000  Level FlightAware
01:06AM 46.8320 -64.6950 46° Northeast 566 651 33,000  Level FlightAware
01:07AM 46.8870 -64.6110 46° Northeast 566 651 33,000  Level FlightAware
01:08AM 46.9620 -64.4980 46° Northeast 566 651 33,000  Level FlightAware
01:08AM 47.0170 -64.4130 46° Northeast 566 651 33,000  Level FlightAware
01:09AM 47.1667 -64.0833 46° Northeast 560 644 33,000  Level Moncton Center
01:10AM 47.2667 -63.8833 54° Northeast 560 644 33,000  Level Moncton Center
01:11AM 47.3667 -63.7000 51° Northeast 560 644 33,000  Level Moncton Center
01:12AM 47.4667 -63.5333 48° Northeast 560 644 33,000  Level Moncton Center
01:13AM 47.5667 -63.3500 51° Northeast 560 644 33,000  Level Moncton Center
01:14AM 47.6667 -63.1833 48° Northeast 560 644 33,000  Level Moncton Center
01:15AM 47.7667 -63.0000 51° Northeast 560 644 33,000  Level Moncton Center
01:16AM 47.8500 -62.8333 53° Northeast 560 644 33,000  Level Moncton Center
01:17AM 47.9500 -62.6167 55° Northeast 560 644 33,000  Level Moncton Center
01:18AM 48.0500 -62.4667 45° Northeast 560 644 33,000  Level Moncton Center
01:19AM 48.1667 -62.2667 49° Northeast 560 644 33,000  Level Moncton Center
01:20AM 48.2500 -62.0833 56° Northeast 560 644 33,000  Level Moncton Center
01:21AM 48.3500 -61.9000 51° Northeast 570 656 33,000  Level Moncton Center
01:22AM 48.4500 -61.7167 51° Northeast 560 644 33,000  Level Moncton Center
01:23AM 48.5500 -61.5333 50° Northeast 560 644 33,000  Level Moncton Center
01:24AM 48.6500 -61.3333 53° Northeast 570 656 33,000  Level Moncton Center
01:25AM 48.7500 -61.1500 50° Northeast 570 656 33,000  Level Moncton Center
01:26AM 48.8333 -60.9667 55° Northeast 570 656 33,000  Level Moncton Center
01:27AM 48.9333 -60.7833 50° Northeast 570 656 33,000  Level Moncton Center
01:32AM 49.4440 -59.7920 50° Northeast 567 652 33,000  Level FlightAware
01:33AM 49.5110 -59.6540 53° Northeast 567 652 33,000  Level FlightAware
01:33AM 49.5760 -59.5210 53° Northeast 565 650 33,000  Level FlightAware
01:34AM 49.6260 -59.4180 53° Northeast 565 650 33,000  Level FlightAware
01:36AM 49.7170 -59.2270 54° Northeast 565 650 33,000  Level FlightAware
01:37AM 49.7820 -59.0910 53° Northeast 564 649 33,000  Level FlightAware
01:37AM 49.8290 -58.9950 53° Northeast 564 649 33,000  Level FlightAware
01:38AM 49.8930 -58.8630 53° Northeast 564 649 33,000  Level FlightAware
01:39AM 50.0850 -58.4440 54° Northeast 564 649 33,000  Level FlightAware
01:40AM 50.1610 -58.2800 54° Northeast 565 650 33,000  Level FlightAware
01:40AM 50.1900 -58.2140 56° Northeast 565 650 33,000  Level FlightAware
01:41AM 50.2670 -58.0480 54° Northeast 564 649 33,000  Level FlightAware
01:41AM 50.3270 -57.9150 55° Northeast 563 648 33,000  Level FlightAware
01:42AM 50.3860 -57.7860 54° Northeast 563 648 33,000  Level FlightAware
01:43AM 50.4520 -57.6420 54° Northeast 563 648 33,000  Level FlightAware
01:44AM 50.5150 -57.5040 54° Northeast 563 648 33,000  Level FlightAware
01:44AM 50.5620 -57.4030 54° Northeast 563 648 33,000  Level FlightAware
01:46AM 50.6840 -57.1370 54° Northeast 563 648 33,000  Level FlightAware
01:46AM 50.7310 -57.0350 54° Northeast 563 648 33,000  Level FlightAware
01:47AM 50.7940 -56.8990 54° Northeast 563 648 33,000  Level FlightAware
01:48AM 50.8410 -56.7970 54° Northeast 563 648 33,000  Level FlightAware
01:49AM 50.9030 -56.6610 54° Northeast 563 648 33,000  Level FlightAware
01:49AM 50.9500 -56.5590 54° Northeast 563 648 33,000  Level FlightAware
01:50AM 50.9980 -56.4530 54° Northeast 563 648 33,000  Level FlightAware
01:51AM 51.0940 -56.2420 54° Northeast 563 648 33,000  Level FlightAware
01:52AM 51.1580 -56.1030 54° Northeast 563 648 33,000  Level FlightAware
01:52AM 51.2667 -55.7000 54° Northeast 570 656 33,000  Level Moncton Center
01:53AM 51.3833 -55.4333 55° Northeast 570 656 33,000  Level Gander Center
01:54AM 51.4500 -55.2333 62° Northeast 570 656 33,000  Level Gander Center
01:55AM 51.5333 -55.0167 58° Northeast 570 656 33,000  Level Gander Center
01:56AM 51.6333 -54.8167 51° Northeast 570 656 33,000  Level Gander Center
01:57AM 51.7167 -54.5833 60° Northeast 570 656 33,000  Level Gander Center
01:58AM 51.8000 -54.3500 60° Northeast 570 656 33,000  Level Gander Center
01:59AM 51.9000 -54.1500 51° Northeast 570 656 33,000  Level Gander Center
02:00AM 51.9667 -53.9500 62° Northeast 560 644 33,000  Level Gander Center
02:01AM 52.0667 -53.7167 55° Northeast 570 656 33,000  Level Gander Center
02:02AM 52.1333 -53.5000 63° Northeast 570 656 33,000  Level Gander Center
02:03AM 52.2167 -53.2667 60° Northeast 570 656 33,000  Level Gander Center
02:04AM 52.2833 -53.0500 63° Northeast 560 644 33,000  Level Gander Center
02:05AM 52.3333 -52.8500 68° East 570 656 33,000  Level Gander Center
02:06AM 52.4000 -52.5500 70° East 580 667 33,000  Level Gander Center
02:07AM 52.4500 -52.3167 71° East 570 656 33,000  Level Gander Center
02:08AM 52.5000 -52.0833 71° East 570 656 33,000  Level Gander Center
02:09AM 52.5833 -51.7500 68° East 570 656 33,000  Level Gander Center
02:10AM 52.6000 -51.6000 80° East 570 656 33,000  Level Gander Center
02:12AM 52.6672 -51.3391 67° East  Level FlightAware Approximate
02:12AM 52.7333 -51.1000 67° East 370 426 33,000  Level Gander Center
02:13AM 52.7833 -50.8667 70° East 530 610 33,000  Level Gander Center
02:14AM 52.8333 -50.6500 69° East 580 667 33,000  Level Gander Center
02:15AM 52.8833 -50.3667 74° East 570 656 33,000  Level Gander Center
02:16AM 52.9167 -50.1833 73° East 570 656 33,000  Level Gander Center
02:17AM 52.9833 -49.9167 67° East 360 414 33,000  Level Gander Center
02:19AM 53.0288 -49.6114 76° East  Level FlightAware Approximate
02:26AM 53.2630 -47.9352 76° East  Level FlightAware Approximate
02:27AM 53.2946 -47.6943 78° East  Level FlightAware Approximate
02:28AM 53.3256 -47.4530 78° East  Level FlightAware Approximate
02:29AM 53.3562 -47.2114 78° East  Level FlightAware Approximate
02:30AM 53.3862 -46.9694 78° East  Level FlightAware Approximate
02:31AM 53.4158 -46.7271 78° East  Level FlightAware Approximate
02:32AM 53.4449 -46.4845 79° East  Level FlightAware Approximate
02:33AM 53.4732 -46.2405 80° East  Level FlightAware Approximate
02:34AM 53.4995 -45.9966 80° East  Level FlightAware Approximate
02:35AM 53.5253 -45.7525 80° East  Level FlightAware Approximate
02:36AM 53.5506 -45.5080 80° East  Level FlightAware Approximate
02:37AM 53.5754 -45.2633 80° East  Level FlightAware Approximate
02:38AM 53.5998 -45.0178 80° East  Level FlightAware Approximate
02:39AM 53.6236 -44.7721 81° East  Level FlightAware Approximate
02:40AM 53.6470 -44.5261 81° East  Level FlightAware Approximate
02:41AM 53.6698 -44.2798 81° East  Level FlightAware Approximate
02:42AM 53.6921 -44.0332 81° East  Level FlightAware Approximate
02:43AM 53.7140 -43.7864 81° East  Level FlightAware Approximate
02:44AM 53.7353 -43.5394 82° East  Level FlightAware Approximate
02:45AM 53.7561 -43.2920 82° East  Level FlightAware Approximate
02:46AM 53.7764 -43.0445 82° East  Level FlightAware Approximate
02:47AM 53.7962 -42.7967 82° East  Level FlightAware Approximate
02:48AM 53.8155 -42.5487 82° East  Level FlightAware Approximate
02:49AM 53.8358 -42.3008 82° East  Level FlightAware Approximate
02:50AM 53.8557 -42.0527 82° East  Level FlightAware Approximate
02:51AM 53.8751 -41.8043 82° East  Level FlightAware Approximate
02:52AM 53.8939 -41.5558 83° East  Level FlightAware Approximate
02:53AM 53.9123 -41.3069 83° East  Level FlightAware Approximate
02:54AM 53.9301 -41.0579 83° East  Level FlightAware Approximate
02:55AM 53.9474 -40.8087 83° East  Level FlightAware Approximate
02:56AM 53.9642 -40.5593 83° East  Level FlightAware Approximate
02:57AM 53.9805 -40.3097 84° East  Level FlightAware Approximate
02:58AM 53.9963 -40.0594 84° East  Level FlightAware Approximate
02:59AM 54.0078 -39.8084 86° East  Level FlightAware Approximate
03:00AM 54.0176 -39.5571 86° East  Level FlightAware Approximate
03:01AM 54.0269 -39.3057 86° East  Level FlightAware Approximate
03:02AM 54.0356 -39.0542 87° East  Level FlightAware Approximate
03:03AM 54.0438 -38.8026 87° East  Level FlightAware Approximate
03:04AM 54.0515 -38.5508 87° East  Level FlightAware Approximate
03:05AM 54.0587 -38.2990 87° East  Level FlightAware Approximate
03:06AM 54.0653 -38.0471 87° East  Level FlightAware Approximate
03:07AM 54.0714 -37.7952 88° East  Level FlightAware Approximate
03:08AM 54.0770 -37.5431 88° East  Level FlightAware Approximate
03:09AM 54.0821 -37.2910 88° East  Level FlightAware Approximate
03:10AM 54.0866 -37.0389 88° East  Level FlightAware Approximate
03:11AM 54.0906 -36.7867 88° East  Level FlightAware Approximate
03:12AM 54.0941 -36.5344 89° East  Level FlightAware Approximate
03:13AM 54.0970 -36.2821 89° East  Level FlightAware Approximate
03:14AM 54.0994 -36.0298 89° East  Level FlightAware Approximate
03:15AM 54.1013 -35.7774 89° East  Level FlightAware Approximate
03:16AM 54.1027 -35.5250 89° East  Level FlightAware Approximate
03:17AM 54.1035 -35.2727 90° East  Level FlightAware Approximate
03:18AM 54.1038 -35.0202 90° East  Level FlightAware Approximate
03:19AM 54.1036 -34.7678 90° East  Level FlightAware Approximate
03:20AM 54.1029 -34.5155 90° East  Level FlightAware Approximate
03:21AM 54.1016 -34.2631 90° East  Level FlightAware Approximate
03:22AM 54.0998 -34.0107 91° East  Level FlightAware Approximate
03:23AM 54.0974 -33.7584 91° East  Level FlightAware Approximate
03:24AM 54.0946 -33.5061 91° East  Level FlightAware Approximate
03:25AM 54.0912 -33.2538 91° East  Level FlightAware Approximate
03:26AM 54.0873 -33.0016 91° East  Level FlightAware Approximate
03:27AM 54.0828 -32.7494 92° East  Level FlightAware Approximate
03:28AM 54.0779 -32.4973 92° East  Level FlightAware Approximate
03:29AM 54.0723 -32.2453 92° East  Level FlightAware Approximate
03:30AM 54.0663 -31.9933 92° East  Level FlightAware Approximate
03:31AM 54.0598 -31.7414 92° East  Level FlightAware Approximate
03:32AM 54.0527 -31.4896 93° East  Level FlightAware Approximate
03:33AM 54.0451 -31.2378 93° East  Level FlightAware Approximate
03:34AM 54.0370 -30.9862 93° East  Level FlightAware Approximate
03:35AM 54.0283 -30.7346 93° East  Level FlightAware Approximate
03:36AM 54.0191 -30.4832 93° East  Level FlightAware Approximate
03:37AM 54.0094 -30.2319 94° East  Level FlightAware Approximate
03:38AM 53.9989 -29.9807 95° East  Level FlightAware Approximate
03:39AM 53.9844 -29.7302 96° East  Level FlightAware Approximate
03:40AM 53.9694 -29.4799 96° East  Level FlightAware Approximate
03:41AM 53.9539 -29.2298 96° East  Level FlightAware Approximate
03:42AM 53.9379 -28.9798 96° East  Level FlightAware Approximate
03:43AM 53.9213 -28.7300 96° East  Level FlightAware Approximate
03:44AM 53.9043 -28.4805 97° East  Level FlightAware Approximate
03:45AM 53.8867 -28.2311 97° East  Level FlightAware Approximate
03:46AM 53.8686 -27.9820 97° East  Level FlightAware Approximate
03:47AM 53.8500 -27.7330 97° East  Level FlightAware Approximate
03:48AM 53.8308 -27.4843 97° East  Level FlightAware Approximate
03:49AM 53.8112 -27.2358 98° East  Level FlightAware Approximate
03:50AM 53.7910 -26.9876 98° East  Level FlightAware Approximate
03:51AM 53.7704 -26.7396 98° East  Level FlightAware Approximate
03:52AM 53.7492 -26.4919 98° East  Level FlightAware Approximate
03:53AM 53.7275 -26.2444 98° East  Level FlightAware Approximate
03:54AM 53.7053 -25.9971 99° East  Level FlightAware Approximate
03:55AM 53.6826 -25.7502 99° East  Level FlightAware Approximate
03:56AM 53.6593 -25.5035 99° East  Level FlightAware Approximate
03:57AM 53.6356 -25.2570 99° East  Level FlightAware Approximate
03:58AM 53.6114 -25.0109 99° East  Level FlightAware Approximate
03:59AM 53.5866 -24.7650 100° East  Level FlightAware Approximate
04:00AM 53.5614 -24.5194 100° East  Level FlightAware Approximate
04:01AM 53.5357 -24.2742 100° East  Level FlightAware Approximate
04:02AM 53.5094 -24.0292 100° East  Level FlightAware Approximate
04:03AM 53.4827 -23.7845 100° East  Level FlightAware Approximate
04:04AM 53.4554 -23.5401 101° East  Level FlightAware Approximate
04:05AM 53.4277 -23.2961 101° East  Level FlightAware Approximate
04:06AM 53.3995 -23.0524 101° East  Level FlightAware Approximate
04:07AM 53.3707 -22.8090 101° East  Level FlightAware Approximate
04:08AM 53.3415 -22.5659 101° East  Level FlightAware Approximate
04:09AM 53.3118 -22.3232 101° East  Level FlightAware Approximate
04:10AM 53.2816 -22.0808 102° East  Level FlightAware Approximate
04:11AM 53.2509 -21.8388 102° East  Level FlightAware Approximate
04:12AM 53.2197 -21.5971 102° East  Level FlightAware Approximate
04:13AM 53.1880 -21.3557 102° East  Level FlightAware Approximate
04:14AM 53.1558 -21.1147 102° East  Level FlightAware Approximate
04:15AM 53.1231 -20.8741 103° East  Level FlightAware Approximate
04:16AM 53.0900 -20.6339 103° East  Level FlightAware Approximate
04:17AM 53.0564 -20.3940 103° East  Level FlightAware Approximate
04:18AM 53.0223 -20.1545 103° East  Level FlightAware Approximate
04:19AM 52.9818 -19.9184 110° East  Level FlightAware Approximate
04:20AM 52.9302 -19.6882 110° East  Level FlightAware Approximate
04:21AM 52.8781 -19.4585 111° Southeast  Level FlightAware Approximate
04:22AM 52.8255 -19.2295 111° Southeast  Level FlightAware Approximate
04:23AM 52.7725 -19.0009 111° Southeast  Level FlightAware Approximate
04:24AM 52.7191 -18.7729 111° Southeast  Level FlightAware Approximate
04:25AM 52.6652 -18.5455 111° Southeast  Level FlightAware Approximate
04:26AM 52.6109 -18.3187 111° Southeast  Level FlightAware Approximate
04:27AM 52.5562 -18.0924 112° Southeast  Level FlightAware Approximate
04:28AM 52.5010 -17.8667 112° Southeast  Level FlightAware Approximate
04:29AM 52.4454 -17.6415 112° Southeast  Level FlightAware Approximate
04:30AM 52.3894 -17.4169 112° Southeast  Level FlightAware Approximate
04:31AM 52.3330 -17.1929 112° Southeast  Level FlightAware Approximate
04:32AM 52.2761 -16.9695 113° Southeast  Level FlightAware Approximate
04:33AM 52.2188 -16.7466 113° Southeast  Level FlightAware Approximate
04:34AM 52.1612 -16.5243 113° Southeast  Level FlightAware Approximate
04:35AM 52.1030 -16.3026 113° Southeast  Level FlightAware Approximate
04:36AM 52.0445 -16.0815 113° Southeast  Level FlightAware Approximate
04:37AM 51.9855 -15.8609 113° Southeast  Level FlightAware Approximate
04:38AM 51.9262 -15.6409 114° Southeast  Level FlightAware Approximate
04:39AM 51.8664 -15.4215 114° Southeast  Level FlightAware Approximate
04:40AM 51.8063 -15.2028 114° Southeast  Level FlightAware Approximate
04:41AM 51.7456 -14.9846 115° Southeast  Level FlightAware Approximate
04:42AM 51.6831 -14.7681 115° Southeast  Level FlightAware Approximate
04:43AM 51.6202 -14.5522 115° Southeast  Level FlightAware Approximate
04:44AM 51.5569 -14.3369 115° Southeast  Level FlightAware Approximate
04:45AM 51.4932 -14.1222 115° Southeast  Level FlightAware Approximate
04:46AM 51.4301 -13.9074 115° Southeast  Level FlightAware Approximate
04:47AM 51.3672 -13.6927 115° Southeast  Level FlightAware Approximate
04:48AM 51.3039 -13.4785 115° Southeast  Level FlightAware Approximate
04:49AM 51.2403 -13.2650 115° Southeast  Level FlightAware Approximate
04:50AM 51.1763 -13.0520 116° Southeast  Level FlightAware Approximate
04:51AM 51.1118 -12.8397 116° Southeast  Level FlightAware Approximate
04:52AM 51.0470 -12.6279 116° Southeast  Level FlightAware Approximate
04:53AM 50.9823 -12.4164 116° Southeast  Level FlightAware Approximate
04:54AM 50.9173 -12.2053 116° Southeast  Level FlightAware Approximate
04:55AM 50.8519 -11.9949 116° Southeast  Level FlightAware Approximate
04:56AM 50.7861 -11.7851 116° Southeast  Level FlightAware Approximate
04:57AM 50.7199 -11.5759 116° Southeast  Level FlightAware Approximate
04:58AM 50.6534 -11.3672 117° Southeast  Level FlightAware Approximate
04:59AM 50.5865 -11.1592 117° Southeast  Level FlightAware Approximate
04:59AM 50.6270 -10.9220 117° Southeast 496 571 35,000  Level FlightAware
04:59AM 50.5770 -10.7840 120° Southeast 499 574 35,000  Level FlightAware
05:00AM 50.5340 -10.6640 119° Southeast 499 574 35,000  Level FlightAware
05:01AM 50.5000 -10.5670 119° Southeast 499 574 35,000  Level FlightAware
05:01AM 50.4310 -10.3870 121° Southeast 504 580 35,000  Level FlightAware
05:02AM 50.3690 -10.2230 121° Southeast 505 581 35,000  Level FlightAware
05:03AM 50.3170 -10.0850 121° Southeast 506 582 35,000  Level FlightAware
05:04AM 50.2640 -9.9430 120° Southeast 506 582 35,000  Level FlightAware
05:04AM 50.2250 -9.8420 121° Southeast 506 582 35,000  Level FlightAware
05:06AM 50.1240 -9.5790 121° Southeast 506 582 35,000  Level FlightAware
05:07AM 50.0490 -9.3820 121° Southeast 506 582 35,000  Level FlightAware
05:07AM 49.9950 -9.2420 121° Southeast 506 582 35,000  Level FlightAware
05:08AM 49.9470 -9.1210 122° Southeast 508 585 35,000  Level FlightAware
05:09AM 49.8929 -8.9818 122° Southeast 478 550 35,000  Level FlightAware UK
05:09AM 49.8930 -8.9840 122° Southeast 511 588 35,000  Level FlightAware
05:09AM 49.8708 -8.9255 122° Southeast 480 552 35,000  Level FlightAware UK
05:09AM 49.8485 -8.8692 121° Southeast 480 552 35,000  Level FlightAware UK
05:10AM 49.8450 -8.8610 121° Southeast 512 589 35,000  Level FlightAware
05:10AM 49.8190 -8.7940 121° Southeast 478 550 35,000  Level FlightAware UK
05:10AM 49.7968 -8.7376 121° Southeast 480 552 35,000  Level FlightAware UK
05:10AM 49.7910 -8.7230 121° Southeast 514 592 35,000  Level FlightAware
05:11AM 49.7670 -8.6624 121° Southeast 480 552 35,000  Level FlightAware UK
05:11AM 49.7446 -8.6060 122° Southeast 480 552 35,000  Level FlightAware UK
05:11AM 49.7470 -8.6130 122° Southeast 516 594 35,000  Level FlightAware
05:11AM 49.7145 -8.5306 122° Southeast 480 552 35,000  Level FlightAware UK
05:12AM 49.6918 -8.4740 122° Southeast 482 555 35,000  Level FlightAware UK
05:12AM 49.6840 -8.4560 122° Southeast 519 597 35,000  Level FlightAware
05:12AM 49.6615 -8.3986 122° Southeast 482 555 35,000  Level FlightAware UK
05:12AM 49.6388 -8.3418 122° Southeast 482 555 35,000  Level FlightAware UK
05:12AM 49.6330 -8.3300 122° Southeast 522 601 35,000  Level FlightAware
05:13AM 49.6083 -8.2661 122° Southeast 482 555 35,000  Level FlightAware UK
05:13AM 49.5853 -8.2092 122° Southeast 484 557 35,000  Level FlightAware UK
05:13AM 49.5780 -8.1910 122° Southeast 525 604 35,000  Level FlightAware
05:13AM 49.5544 -8.1332 122° Southeast 486 559 35,000  Level FlightAware UK
05:14AM 49.5312 -8.0761 122° Southeast 486 559 35,000  Level FlightAware UK
05:14AM 49.5250 -8.0640 122° Southeast 526 605 35,000  Level FlightAware
05:14AM 49.5006 -7.9984 122° Southeast 486 559 35,000  Level FlightAware UK
05:14AM 49.4814 -7.9361 115° Southeast 486 559 35,000  Level FlightAware UK
05:14AM 49.4770 -7.9180 115° Southeast 527 606 35,000  Level FlightAware
05:15AM 49.4578 -7.8537 115° Southeast 488 562 35,000  Level FlightAware UK
05:15AM 49.4408 -7.7920 113° Southeast 488 562 35,000  Level FlightAware UK
05:15AM 49.4370 -7.7810 113° Southeast 528 608 35,000  Level FlightAware
05:15AM 49.4177 -7.7094 113° Southeast 488 562 35,000  Level FlightAware UK
05:16AM 49.4003 -7.6475 113° Southeast 486 559 35,000  Level FlightAware UK
05:16AM 49.3940 -7.6260 113° Southeast 528 608 35,000  Level FlightAware
05:16AM 49.3770 -7.5652 113° Southeast 486 559 35,000  Level FlightAware UK
05:16AM 49.3594 -7.5035 114° Southeast 484 557 35,000  Level FlightAware UK
05:17AM 49.3550 -7.4890 114° Southeast 528 608 35,000  Level FlightAware
05:17AM 49.3362 -7.4210 114° Southeast 486 559 35,000  Level FlightAware UK
05:17AM 49.3185 -7.3593 114° Southeast 486 559 35,000  Level FlightAware UK
05:17AM 49.3140 -7.3530 114° Southeast 529 609 35,000  Level FlightAware
05:18AM 49.2901 -7.2804 114° Southeast 486 559 35,000  Level FlightAware UK
05:18AM 49.2689 -7.2214 119° Southeast 486 559 35,000  Level FlightAware UK
05:18AM 49.2650 -7.2110 119° Southeast 529 609 35,000  Level FlightAware
05:18AM 49.2399 -7.1433 119° Southeast 484 557 35,000  Level FlightAware UK
05:19AM 49.2178 -7.0848 120° Southeast 484 557 35,000  Level FlightAware UK
05:19AM 49.2130 -7.0750 120° Southeast 530 610 35,000  Level FlightAware
05:19AM 49.1882 -7.0072 120° Southeast 484 557 35,000  Level FlightAware UK
05:19AM 49.1660 -6.9490 120° Southeast 484 557 35,000  Level FlightAware UK
05:19AM 49.1590 -6.9330 120° Southeast 530 610 35,000  Level FlightAware
05:20AM 49.1358 -6.8710 120° Southeast 484 557 35,000  Level FlightAware UK
05:20AM 49.1290 -6.8560 121° Southeast 529 609 35,000  Level FlightAware
05:20AM 49.1133 -6.8132 121° Southeast 484 557 35,000  Level FlightAware UK
05:20AM 49.0906 -6.7556 121° Southeast 484 557 35,000  Level FlightAware UK
05:20AM 49.0830 -6.7363 121° Southeast 484 557 35,000  Level FlightAware UK
05:21AM 49.0604 -6.6787 121° Southeast 484 557 35,000  Level FlightAware UK
05:21AM 49.0377 -6.6211 121° Southeast 484 557 35,000  Level FlightAware UK
05:21AM 49.0380 -6.6240 121° Southeast 531 611 35,000  Level FlightAware
05:21AM 49.0150 -6.5634 121° Southeast 484 557 35,000  Level FlightAware UK
05:22AM 48.9924 -6.5056 121° Southeast 484 557 35,000  Level FlightAware UK
05:22AM 48.9820 -6.4800 121° Southeast 531 611 35,000  Level FlightAware
05:22AM 48.9620 -6.4287 121° Southeast 486 559 35,000  Level FlightAware UK
05:22AM 48.9392 -6.3712 121° Southeast 486 559 35,000  Level FlightAware UK
05:22AM 48.9320 -6.3550 121° Southeast 531 611 35,000  Level FlightAware
05:23AM 48.9087 -6.2945 121° Southeast 488 562 35,000  Level FlightAware UK
05:23AM 48.8858 -6.2370 121° Southeast 488 562 35,000  Level FlightAware UK
05:23AM 48.8760 -6.2150 121° Southeast 531 611 35,000  Level FlightAware
05:23AM 48.8552 -6.1605 121° Southeast 488 562 35,000  Level FlightAware UK
05:24AM 48.8323 -6.1031 121° Southeast 488 562 35,000  Level FlightAware UK
05:24AM 48.8230 -6.0810 121° Southeast 529 609 35,000  Level FlightAware
05:24AM 48.8020 -6.0268 121° Southeast 486 559 35,000  Level FlightAware UK
05:24AM 48.7791 -5.9697 121° Southeast 484 557 35,000  Level FlightAware UK
05:24AM 48.7720 -5.9550 121° Southeast 529 609 35,000  Level FlightAware
05:25AM 48.7485 -5.8938 121° Southeast 484 557 35,000  Level FlightAware UK
05:25AM 48.7255 -5.8370 121° Southeast 484 557 35,000  Level FlightAware UK
05:25AM 48.7023 -5.7795 121° Southeast 484 557 35,000  Level FlightAware UK
05:25AM 48.6980 -5.7710 121° Southeast 530 610 35,000  Level FlightAware
05:26AM 48.6716 -5.7037 121° Southeast 486 559 35,000  Level FlightAware UK
05:26AM 48.6486 -5.6468 121° Southeast 486 559 35,000  Level FlightAware UK
05:26AM 48.6460 -5.6410 121° Southeast 530 610 35,000  Level FlightAware
05:26AM 48.6256 -5.5900 121° Southeast 484 557 35,000  Level FlightAware UK
05:27AM 48.6024 -5.5333 122° Southeast 484 557 35,000  Level FlightAware UK
05:27AM 48.5920 -5.5120 122° Southeast 531 611 35,000  Level FlightAware
05:27AM 48.5714 -5.4578 122° Southeast 484 557 35,000  Level FlightAware UK
05:27AM 48.5482 -5.4012 122° Southeast 484 557 35,000  Level FlightAware UK
05:28AM 48.5360 -5.3740 122° Southeast 531 611 35,000  Level FlightAware
05:28AM 48.4941 -5.2694 122° Southeast 484 557 35,000  Level FlightAware UK
05:28AM 48.4840 -5.2480 122° Southeast 531 611 35,000  Level FlightAware
05:29AM 48.4260 -5.1070 122° Southeast 532 612 35,000  Level FlightAware
05:30AM 48.3772 -4.9871 122° Southeast 484 557 35,000  Level FlightAware UK
05:30AM 48.3770 -4.9900 122° Southeast 533 613 35,000  Level FlightAware
05:30AM 48.3458 -4.9119 122° Southeast 484 557 35,000  Level FlightAware UK
05:30AM 48.3219 -4.8548 122° Southeast 484 557 35,000  Level FlightAware UK
05:30AM 48.3190 -4.8490 122° Southeast 533 613 35,000  Level FlightAware
05:31AM 48.2985 -4.7991 122° Southeast 484 557 35,000  Level FlightAware UK
05:31AM 48.2749 -4.7425 122° Southeast 482 555 35,000  Level FlightAware UK
05:31AM 48.2600 -4.7110 122° Southeast 535 616 35,000  Level FlightAware
05:31AM 48.2350 -4.6478 122° Southeast 482 555 35,000  Level FlightAware UK
05:32AM 48.2110 -4.5950 122° Southeast 536 617 35,000  Level FlightAware
05:32AM 48.1500 -4.4510 122° Southeast 537 618 35,000  Level FlightAware
05:33AM 48.0970 -4.3260 122° Southeast 538 619 35,000  Level FlightAware
05:34AM 48.0370 -4.1850 122° Southeast 539 620 35,000  Level FlightAware
05:35AM 47.9840 -4.0620 123° Southeast 541 623 35,000  Level FlightAware
05:35AM 47.9270 -3.9270 122° Southeast 542 624 35,000  Level FlightAware
05:36AM 47.8830 -3.8260 123° Southeast 543 625 35,000  Level FlightAware
05:37AM 47.8070 -3.6530 123° Southeast 541 623 35,000  Level FlightAware
05:37AM 47.7480 -3.5180 123° Southeast 545 627 35,000  Level FlightAware
05:38AM 47.6870 -3.3770 123° Southeast 546 628 35,000  Level FlightAware
05:39AM 47.6370 -3.2640 123° Southeast 546 628 35,000  Level FlightAware
05:40AM 47.5600 -3.0930 124° Southeast 546 628 35,000  Level FlightAware
05:40AM 47.5030 -2.9650 123° Southeast 546 628 35,000 300 Level FlightAware
05:41AM 47.4410 -2.8280 124° Southeast 551 634 35,500 900 Climbing FlightAware
05:42AM 47.3850 -2.7030 123° Southeast 548 631 36,300 1,020 Climbing FlightAware
05:42AM 47.3230 -2.5640 123° Southeast 544 626 37,000 480 Climbing FlightAware
05:43AM 47.2640 -2.4350 124° Southeast 543 625 37,000  Level FlightAware
05:44AM 47.2110 -2.3220 125° Southeast 540 621 37,000  Level FlightAware
05:45AM 47.1480 -2.1830 124° Southeast 536 617 37,000  Level FlightAware
05:45AM 47.1140 -2.1100 124° Southeast 536 617 37,000  Level FlightAware
05:46AM 47.0180 -1.9010 124° Southeast 534 615 37,000  Level FlightAware
05:47AM 46.9600 -1.7760 124° Southeast 534 615 37,000  Level FlightAware
05:48AM 46.8970 -1.6450 125° Southeast 535 616 37,000  Level FlightAware
05:48AM 46.8410 -1.5260 124° Southeast 536 617 37,000  Level FlightAware
05:49AM 46.7810 -1.3980 124° Southeast 539 620 37,000  Level FlightAware
05:50AM 46.7170 -1.2630 125° Southeast 539 620 37,000  Level FlightAware
05:50AM 46.6580 -1.1380 124° Southeast 541 623 37,000  Level FlightAware
05:51AM 46.6000 -1.0190 125° Southeast 542 624 37,000  Level FlightAware
05:52AM 46.5400 -0.8930 125° Southeast 543 625 37,000  Level FlightAware
05:53AM 46.4780 -0.7650 125° Southeast 544 626 37,000  Level FlightAware
05:55AM 46.3994 -0.3509 105° East  Level Estimated
05:55AM 46.3560 -0.3120 105° East 537 618 37,000  Level FlightAware
05:56AM 46.2810 -0.0290 111° Southeast 539 620 37,000  Level FlightAware
05:57AM 46.2440 0.1080 111° Southeast 538 619 37,000  Level FlightAware
05:58AM 46.2110 0.2400 110° East 538 619 37,000  Level FlightAware
05:58AM 46.1790 0.3680 110° East 536 617 37,000  Level FlightAware
05:59AM 46.1390 0.5250 110° East 532 612 37,000  Level FlightAware
06:00AM 46.1130 0.6320 109° East 532 612 37,000  Level FlightAware
06:00AM 46.0790 0.7750 109° East 532 612 37,000  Level FlightAware
06:01AM 46.0540 0.8770 109° East 532 612 37,000  Level FlightAware
06:02AM 46.0210 1.0170 109° East 532 612 37,000  Level FlightAware
06:02AM 45.9960 1.1190 109° East 532 612 37,000  Level FlightAware
06:03AM 45.9250 1.3490 114° Southeast 536 617 37,000  Level FlightAware
06:04AM 45.8800 1.5400 109° East 534 615 37,000  Level FlightAware
06:05AM 45.8580 1.6920 102° East 533 613 37,000  Level FlightAware
06:05AM 45.8350 1.8520 102° East 535 616 37,000  Level FlightAware
06:06AM 45.8130 2.0080 101° East 534 615 37,000  Level FlightAware
06:07AM 45.7920 2.1460 102° East 532 612 37,000  Level FlightAware
06:08AM 45.7710 2.2970 101° East 529 609 37,000  Level FlightAware
06:08AM 45.7530 2.4240 101° East 529 609 37,000  Level FlightAware
06:09AM 45.7320 2.5710 102° East 530 610 37,000  Level FlightAware
06:10AM 45.7090 2.7260 102° East 530 610 37,000  Level FlightAware
06:10AM 45.6920 2.8420 102° East 529 609 37,000  Level FlightAware
06:11AM 45.6670 3.0100 102° East 527 606 37,000  Level FlightAware
06:11AM 45.6500 3.0560 118° Southeast 528 608 37,000  Level FlightAware
06:12AM 45.5880 3.1720 127° Southeast 527 606 37,000  Level FlightAware
06:13AM 45.5300 3.2880 125° Southeast 528 608 37,000  Level FlightAware
06:13AM 45.4730 3.4070 124° Southeast 530 610 37,000  Level FlightAware
06:14AM 45.4130 3.5380 123° Southeast 529 609 37,000  Level FlightAware
06:15AM 45.3580 3.6610 122° Southeast 529 609 37,000  Level FlightAware
06:15AM 45.3070 3.7730 123° Southeast 529 609 37,000  Level FlightAware
06:16AM 45.2480 3.9040 123° Southeast 530 610 37,000  Level FlightAware
06:17AM 45.1920 4.0180 125° Southeast 530 610 37,000  Level FlightAware
06:18AM 45.1360 4.1320 125° Southeast 531 611 37,000  Level FlightAware
06:18AM 45.0740 4.2540 126° Southeast 534 615 37,000  Level FlightAware
06:19AM 45.0110 4.3830 125° Southeast 535 616 37,000  Level FlightAware
06:20AM 44.9530 4.4970 126° Southeast 536 617 37,000  Level FlightAware
06:20AM 44.8910 4.6220 125° Southeast 536 617 37,000  Level FlightAware
06:21AM 44.8340 4.7370 125° Southeast 536 617 37,000  Level FlightAware
06:22AM 44.7710 4.8620 125° Southeast 537 618 37,000  Level FlightAware
06:22AM 44.7130 4.9660 128° Southeast 534 615 37,000  Level FlightAware
06:23AM 44.6360 5.0770 134° Southeast 533 613 37,000  Level FlightAware
06:24AM 44.5650 5.1760 135° Southeast 533 613 37,000  Level FlightAware
06:25AM 44.4890 5.2850 134° Southeast 532 612 37,000  Level FlightAware
06:26AM 44.4640 5.3220 133° Southeast 532 612 37,000  Level FlightAware
06:27AM 44.2980 5.5690 133° Southeast 533 613 37,000  Level FlightAware
06:27AM 44.2280 5.6690 134° Southeast 536 617 37,000  Level FlightAware
06:28AM 44.1560 5.7790 132° Southeast 538 619 37,000  Level FlightAware
06:29AM 44.0960 5.8980 125° Southeast 547 629 37,000  Level FlightAware
06:29AM 44.0510 6.0090 119° Southeast 544 626 37,000  Level FlightAware
06:30AM 43.9960 6.1460 119° Southeast 545 627 37,000  Level FlightAware
06:31AM 43.9390 6.2870 119° Southeast 546 628 37,000  Level FlightAware
06:31AM 43.8900 6.4080 119° Southeast 544 626 37,000  Level FlightAware
06:32AM 43.8390 6.5320 120° Southeast 544 626 37,000  Level FlightAware
06:33AM 43.7850 6.6580 121° Southeast 547 629 37,000  Level FlightAware
06:33AM 43.7340 6.7790 120° Southeast 545 627 37,000  Level FlightAware
06:34AM 43.6840 6.8990 120° Southeast 548 631 37,000  Level FlightAware
06:35AM 43.6050 7.0890 120° Southeast 553 636 37,000  Level FlightAware
06:36AM 43.5520 7.2140 120° Southeast 553 636 37,000  Level FlightAware
06:36AM 43.5010 7.3360 120° Southeast 554 638 37,000  Level FlightAware
06:37AM 43.4250 7.5160 120° Southeast 555 639 37,000  Level FlightAware
06:38AM 43.3740 7.6340 121° Southeast 555 639 37,000  Level FlightAware
06:39AM 43.3210 7.7550 121° Southeast 556 640 37,000  Level FlightAware
06:40AM 43.2630 7.8890 121° Southeast 555 639 37,000  Level FlightAware
06:41AM 43.1690 8.1050 121° Southeast 553 636 37,000  Level FlightAware
06:41AM 43.1150 8.2290 121° Southeast 551 634 37,000  Level FlightAware
06:42AM 43.0590 8.3610 120° Southeast 548 631 37,000  Level FlightAware
06:43AM 43.0080 8.4840 120° Southeast 547 629 37,000  Level FlightAware
06:43AM 42.9550 8.6050 121° Southeast 545 627 37,000  Level FlightAware
06:44AM 42.9020 8.7260 121° Southeast 541 623 37,000  Level FlightAware
06:46AM 42.8430 8.8630 120° Southeast 538 619 37,000  Level FlightAware
06:46AM 42.7410 9.0960 121° Southeast 525 604 37,000  Level FlightAware
06:47AM 42.6860 9.2200 121° Southeast 520 598 37,000  Level FlightAware
06:48AM 42.6380 9.3280 121° Southeast 516 594 37,000  Level FlightAware
06:48AM 42.5860 9.4560 119° Southeast 518 596 37,000  Level FlightAware
06:49AM 42.5500 9.5770 112° Southeast 525 604 37,000  Level FlightAware
06:51AM 42.4800 9.8360 110° East 523 602 37,000  Level FlightAware
06:51AM 42.4460 9.9650 110° East 525 604 37,000  Level FlightAware
06:52AM 42.4030 10.0900 115° Southeast 524 603 37,000  Level FlightAware
06:53AM 42.3450 10.2110 123° Southeast 521 600 37,000  Level FlightAware
06:53AM 42.2930 10.3130 125° Southeast 522 601 37,000  Level FlightAware
06:54AM 42.2380 10.4240 124° Southeast 521 600 37,000  Level FlightAware
06:55AM 42.1640 10.5700 124° Southeast 528 608 37,000  Level FlightAware
06:56AM 42.0980 10.6980 125° Southeast 530 610 37,000  Level FlightAware
06:56AM 42.0430 10.8070 124° Southeast 534 615 37,000  Level FlightAware
06:57AM 41.9810 10.9280 125° Southeast 538 619 37,000  Level FlightAware
06:58AM 41.9220 11.0410 125° Southeast 541 623 37,000  Level FlightAware
06:58AM 41.8650 11.1520 125° Southeast 546 628 37,000  Level FlightAware
06:59AM 41.7990 11.2810 124° Southeast 550 633 37,000  Level FlightAware
07:00AM 41.7410 11.3920 125° Southeast 542 624 37,000  Level FlightAware
07:01AM 41.6810 11.5100 124° Southeast 544 626 37,000  Level FlightAware
07:01AM 41.6220 11.6230 125° Southeast 542 624 37,000  Level FlightAware
07:02AM 41.5590 11.7440 125° Southeast 538 619 37,000  Level FlightAware
07:03AM 41.5000 11.8550 125° Southeast 537 618 37,000  Level FlightAware
07:03AM 41.4430 11.9640 125° Southeast 536 617 37,000  Level FlightAware
07:04AM 41.3860 12.0720 125° Southeast 536 617 37,000  Level FlightAware
07:05AM 41.3210 12.1940 125° Southeast 536 617 37,000  Level FlightAware
07:05AM 41.2590 12.3130 125° Southeast 538 619 37,000  Level FlightAware
07:06AM 41.1990 12.4250 125° Southeast 539 620 37,000  Level FlightAware
07:07AM 41.1340 12.5440 126° Southeast 537 618 37,000  Level FlightAware
07:08AM 41.0820 12.6410 125° Southeast 535 616 37,000  Level FlightAware
07:08AM 41.0190 12.7690 123° Southeast 544 626 37,000  Level FlightAware
07:09AM 40.9480 12.9320 120° Southeast 541 623 37,000  Level FlightAware
07:10AM 40.9030 13.0320 121° Southeast 542 624 37,000  Level FlightAware
07:11AM 40.8530 13.1490 119° Southeast 540 621 37,000  Level FlightAware
07:11AM 40.7920 13.2840 121° Southeast 535 616 37,000  Level FlightAware
07:12AM 40.7360 13.4110 120° Southeast 533 613 37,000  Level FlightAware
07:13AM 40.6840 13.5250 121° Southeast 535 616 37,000  Level FlightAware
07:13AM 40.6330 13.6370 121° Southeast 536 617 37,000  Level FlightAware
07:14AM 40.5800 13.7580 120° Southeast 537 618 37,000  Level FlightAware
07:16AM 40.4520 14.0390 121° Southeast 539 620 37,000  Level FlightAware
07:16AM 40.4100 14.1320 121° Southeast 540 621 37,000  Level FlightAware
07:17AM 40.3460 14.2690 121° Southeast 541 623 37,000  Level FlightAware
07:18AM 40.2940 14.3850 120° Southeast 537 618 37,000  Level FlightAware
07:19AM 40.2360 14.5080 122° Southeast 539 620 37,000  Level FlightAware
07:19AM 40.1840 14.6210 121° Southeast 540 621 37,000  Level FlightAware
07:20AM 40.1310 14.7360 121° Southeast 539 620 37,000  Level FlightAware
07:21AM 40.0750 14.8640 120° Southeast 547 629 37,000  Level FlightAware
07:21AM 40.0290 14.9890 116° Southeast 547 629 37,000  Level FlightAware
07:22AM 39.9860 15.1050 116° Southeast 547 629 37,000  Level FlightAware
07:23AM 39.9400 15.2410 114° Southeast 547 629 37,000  Level FlightAware
07:24AM 39.8790 15.4140 115° Southeast 545 627 37,000  Level FlightAware
07:24AM 39.8360 15.5330 115° Southeast 545 627 37,000  Level FlightAware
07:25AM 39.7770 15.6960 115° Southeast 542 624 37,000  Level FlightAware
07:26AM 39.7330 15.8190 115° Southeast 541 623 37,000  Level FlightAware
07:27AM 39.6860 15.9480 115° Southeast 542 624 37,000  Level FlightAware
07:27AM 39.6430 16.0660 115° Southeast 542 624 37,000  Level FlightAware
07:28AM 39.6020 16.1740 116° Southeast 540 621 37,000  Level FlightAware
07:29AM 39.5500 16.3180 115° Southeast 540 621 37,000  Level FlightAware
07:30AM 39.5060 16.4380 115° Southeast 543 625 37,000  Level FlightAware
07:30AM 39.4820 16.5020 116° Southeast 545 627 37,000  Level FlightAware
07:31AM 39.4090 16.6980 116° Southeast 542 624 37,000  Level FlightAware
07:32AM 39.3620 16.8240 116° Southeast 543 625 37,000  Level FlightAware
07:33AM 39.2980 16.9970 116° Southeast 545 627 37,000  Level FlightAware
07:34AM 39.2540 17.1120 116° Southeast 553 636 37,000  Level FlightAware
07:34AM 39.2050 17.2420 116° Southeast 551 634 37,000  Level FlightAware
07:35AM 39.1560 17.3690 116° Southeast 556 640 37,000  Level FlightAware
07:36AM 39.1070 17.5000 116° Southeast 556 640 37,000  Level FlightAware
07:36AM 39.0670 17.6040 116° Southeast 555 639 37,000  Level FlightAware
07:37AM 39.0200 17.7250 117° Southeast 555 639 37,000  Level FlightAware
07:38AM 38.9770 17.8370 116° Southeast 553 636 37,000  Level FlightAware
07:38AM 38.9180 17.9880 117° Southeast 555 639 37,000  Level FlightAware
07:39AM 38.8700 18.1120 116° Southeast 557 641 37,000  Level FlightAware
07:41AM 38.7900 18.3160 117° Southeast 555 639 37,000  Level FlightAware
07:41AM 38.7140 18.5110 116° Southeast 559 643 37,000  Level FlightAware
07:42AM 38.6670 18.6260 118° Southeast 558 642 37,000  Level FlightAware
07:43AM 38.6160 18.7550 117° Southeast 557 641 37,000  Level FlightAware
07:44AM 38.5640 18.8860 117° Southeast 555 639 37,000  Level FlightAware
07:44AM 38.5030 19.0570 114° Southeast 560 644 37,000  Level FlightAware
07:45AM 38.4740 19.1660 109° East 561 646 37,000  Level FlightAware
07:46AM 38.4370 19.3080 108° East 560 644 37,000  Level FlightAware
07:46AM 38.4000 19.4330 111° Southeast 556 640 37,000  Level FlightAware
07:47AM 38.3560 19.5660 113° Southeast 555 639 37,000  Level FlightAware
07:48AM 38.3160 19.6900 112° Southeast 552 635 37,000  Level FlightAware
07:48AM 38.2730 19.8250 112° Southeast 551 634 37,000  Level FlightAware
07:49AM 38.2330 19.9420 113° Southeast 549 632 37,000  Level FlightAware
07:50AM 38.1980 20.0460 113° Southeast 549 632 37,000  Level FlightAware
07:51AM 38.1490 20.1950 113° Southeast 551 634 37,000  Level FlightAware
07:51AM 38.1090 20.3170 113° Southeast 548 631 37,000  Level FlightAware
07:52AM 38.0640 20.4510 113° Southeast 548 631 37,000  Level FlightAware
07:53AM 38.0240 20.5670 114° Southeast 547 629 37,000  Level FlightAware
07:53AM 37.9790 20.7000 113° Southeast 546 628 37,000  Level FlightAware
07:54AM 37.9380 20.8180 114° Southeast 545 627 37,000  Level FlightAware
07:55AM 37.8980 20.9380 113° Southeast 543 625 37,000  Level FlightAware
07:55AM 37.8540 21.0630 114° Southeast 543 625 37,000  Level FlightAware
07:56AM 37.8090 21.1940 113° Southeast 543 625 37,000  Level FlightAware
07:57AM 37.7720 21.3020 113° Southeast 545 627 37,000  Level FlightAware
07:58AM 37.7260 21.4310 114° Southeast 547 629 37,000  Level FlightAware
07:58AM 37.6830 21.5530 114° Southeast 548 631 37,000  Level FlightAware
07:59AM 37.6450 21.6640 113° Southeast 548 631 37,000  Level FlightAware
08:00AM 37.5950 21.8050 114° Southeast 548 631 37,000  Level FlightAware
08:00AM 37.5860 21.8310 114° Southeast 548 631 37,000  Level FlightAware
08:01AM 37.5180 22.0200 114° Southeast 545 627 37,000  Level FlightAware
08:02AM 37.4710 22.1520 114° Southeast 543 625 37,000  Level FlightAware
08:02AM 37.4300 22.2670 114° Southeast 540 621 37,000  Level FlightAware
08:03AM 37.3930 22.3770 113° Southeast 541 623 37,000  Level FlightAware
08:04AM 37.3530 22.5130 110° East 543 625 37,000  Level FlightAware
08:04AM 37.3150 22.6440 110° East 544 626 37,000  Level FlightAware
08:06AM 37.2530 22.8480 111° Southeast 543 625 37,000  Level FlightAware
08:06AM 37.2140 22.9660 113° Southeast 541 623 37,000  Level FlightAware
08:07AM 37.1740 23.0840 113° Southeast 540 621 37,000  Level FlightAware
08:08AM 37.1300 23.2110 113° Southeast 539 620 37,000  Level FlightAware
08:08AM 37.0910 23.3290 112° Southeast 539 620 37,000  Level FlightAware
08:09AM 37.0510 23.4470 113° Southeast 537 618 37,000  Level FlightAware
08:10AM 36.9960 23.6080 113° Southeast 540 621 37,000  Level FlightAware
08:11AM 36.9570 23.7230 113° Southeast 541 623 37,000  Level FlightAware
08:11AM 36.9110 23.8580 113° Southeast 544 626 37,000  Level FlightAware
08:12AM 36.8720 23.9740 113° Southeast 546 628 37,000  Level FlightAware
08:13AM 36.8300 24.0960 113° Southeast 547 629 37,000  Level FlightAware
08:14AM 36.7870 24.2200 113° Southeast 549 632 37,000  Level FlightAware
08:14AM 36.7430 24.3450 114° Southeast 551 634 37,000  Level FlightAware
08:15AM 36.7110 24.4360 114° Southeast 553 636 37,000  Level FlightAware
08:16AM 36.6450 24.6260 113° Southeast 555 639 37,000  Level FlightAware
08:17AM 36.5990 24.7550 114° Southeast 555 639 37,000  Level FlightAware
08:17AM 36.5580 24.8720 114° Southeast 556 640 37,000  Level FlightAware
08:18AM 36.5120 25.0000 114° Southeast 558 642 37,000  Level FlightAware
08:19AM 36.4680 25.1240 114° Southeast 558 642 37,000  Level FlightAware
08:19AM 36.4280 25.2350 114° Southeast 558 642 37,000  Level FlightAware
08:21AM 36.3850 25.3580 113° Southeast 557 641 37,000  Level FlightAware
08:21AM 36.3110 25.5610 114° Southeast 557 641 37,000  Level FlightAware
08:22AM 36.2650 25.6870 114° Southeast 557 641 37,000  Level FlightAware
08:23AM 36.2200 25.8090 115° Southeast 559 643 37,000  Level FlightAware
08:23AM 36.1790 25.9230 114° Southeast 556 640 37,000  Level FlightAware
08:24AM 36.1300 26.0540 115° Southeast 558 642 37,000  Level FlightAware
08:25AM 36.0960 26.1470 114° Southeast 558 642 37,000  Level FlightAware
08:25AM 36.0370 26.3050 115° Southeast 559 643 37,000  Level FlightAware
08:26AM 35.9970 26.4130 115° Southeast 561 646 37,000  Level FlightAware
08:27AM 35.9500 26.5390 115° Southeast 562 647 37,000  Level FlightAware
08:28AM 35.9040 26.6620 115° Southeast 562 647 37,000  Level FlightAware
08:28AM 35.8550 26.7940 115° Southeast 567 652 37,000  Level FlightAware
08:29AM 35.8120 26.9050 116° Southeast 567 652 37,000  Level FlightAware
08:31AM 35.7110 27.1810 114° Southeast 567 652 37,000  Level FlightAware
08:31AM 35.6510 27.3290 116° Southeast 568 654 37,000  Level FlightAware
08:32AM 35.6050 27.4490 115° Southeast 568 654 37,000  Level FlightAware
08:33AM 35.5510 27.5890 115° Southeast 37,000  Level FlightAware
08:34AM 35.4880 27.7530 115° Southeast 37,000  Level FlightAware
08:34AM 35.4360 27.8850 116° Southeast 573 659 37,000  Level FlightAware
08:35AM 35.3820 28.0200 116° Southeast 576 663 37,000  Level FlightAware
08:36AM 35.3310 28.1530 115° Southeast 579 666 37,000  Level FlightAware
08:37AM 35.2820 28.2770 116° Southeast 579 666 37,000  Level FlightAware
08:37AM 35.2310 28.4060 116° Southeast 580 667 37,000  Level FlightAware
08:38AM 35.1840 28.5220 116° Southeast 581 669 37,000  Level FlightAware
08:39AM 35.1340 28.6490 116° Southeast 580 667 37,000  Level FlightAware
08:39AM 35.0950 28.7490 115° Southeast 577 664 37,000  Level FlightAware
08:42AM 34.9457 29.0742 119° Southeast  Level FlightAware Approximate
08:42AM 34.9480 29.1130 119° Southeast 579 666 37,000  Level FlightAware
08:42AM 34.8900 29.2550 116° Southeast 576 663 37,000  Level FlightAware
08:43AM 34.8320 29.3970 116° Southeast 574 661 37,000  Level FlightAware
08:44AM 34.7780 29.5290 116° Southeast 568 654 37,000  Level FlightAware
08:45AM 34.7250 29.6550 117° Southeast 566 651 37,000  Level FlightAware
08:45AM 34.7160 29.6780 115° Southeast 565 650 37,000  Level FlightAware
08:46AM 34.6370 29.8690 117° Southeast 563 648 37,000  Level FlightAware
08:46AM 34.6010 29.9640 115° Southeast 563 648 37,000  Level FlightAware
08:48AM 34.5010 30.1710 120° Southeast 558 642 37,000  Level FlightAware
08:48AM 34.4370 30.2930 122° Southeast 561 646 37,000  Level FlightAware
08:49AM 34.3830 30.4010 121° Southeast 562 647 37,000  Level FlightAware
08:50AM 34.3210 30.5240 121° Southeast 561 646 37,000  Level FlightAware
08:51AM 34.2610 30.6420 122° Southeast 560 644 37,000  Level FlightAware
08:51AM 34.2130 30.7380 121° Southeast 559 643 37,000  Level FlightAware
08:52AM 34.1530 30.8560 122° Southeast 558 642 37,000  Level FlightAware
08:53AM 34.0980 30.9640 122° Southeast 557 641 37,000  Level FlightAware
08:53AM 34.0390 31.0840 121° Southeast 556 640 37,000  Level FlightAware
08:54AM 33.9840 31.1890 122° Southeast 555 639 37,000  Level FlightAware
08:55AM 33.9360 31.2810 122° Southeast 554 638 37,000  Level FlightAware
08:55AM 33.8710 31.4100 121° Southeast 558 642 37,000  Level FlightAware
08:56AM 33.8150 31.5190 122° Southeast 557 641 37,000  Level FlightAware
08:57AM 33.7530 31.6380 122° Southeast 557 641 37,000  Level FlightAware
08:57AM 33.7050 31.7330 121° Southeast 555 639 37,000  Level FlightAware
08:58AM 33.6420 31.8540 122° Southeast 556 640 37,000  Level FlightAware
08:59AM 33.5890 31.9530 123° Southeast 555 639 37,000  Level FlightAware
09:00AM 33.5350 32.0830 116° Southeast 560 644 37,000  Level FlightAware
09:01AM 33.4950 32.2000 112° Southeast 556 640 37,000 -780 Level FlightAware
09:01AM 33.4310 32.3830 113° Southeast 566 651 35,700 -1,860 Descending FlightAware
09:02AM 33.3880 32.5030 113° Southeast 573 659 34,400 -1,740 Descending FlightAware
09:03AM 33.3470 32.6170 113° Southeast 575 662 33,400 -1,440 Descending FlightAware
09:03AM 33.2880 32.7340 121° Southeast 568 654 32,400 -1,140 Descending FlightAware
09:04AM 33.2220 32.8510 124° Southeast 560 644 31,800 -1,200 Descending FlightAware
09:05AM 33.1700 32.9460 123° Southeast 542 624 30,800 -1,500 Descending FlightAware
09:05AM 33.1570 32.9710 122° Southeast 540 621 30,600 -2,280 Descending FlightAware
09:06AM 33.0470 33.1670 124° Southeast 513 590 27,500 -2,400 Descending FlightAware
09:07AM 32.9850 33.2780 124° Southeast 495 570 25,600 -2,400 Descending FlightAware
09:08AM 32.9430 33.3510 124° Southeast 480 552 24,300 -2,340 Descending FlightAware
09:08AM 32.8820 33.4590 124° Southeast 466 536 22,400 -2,220 Descending FlightAware
09:09AM 32.8330 33.5450 124° Southeast 470 541 21,000 -1,980 Descending FlightAware
09:10AM 32.7780 33.6270 129° Southeast 452 520 19,700 -1,920 Descending FlightAware
09:11AM 32.7260 33.7050 128° Southeast 438 504 18,400 -1,800 Descending FlightAware
09:11AM 32.6710 33.7900 128° Southeast 434 499 17,200 -1,500 Descending FlightAware
09:12AM 32.6320 33.8480 129° Southeast 433 498 16,300 -1,740 Descending FlightAware
09:13AM 32.5710 33.9440 127° Southeast 410 472 14,800 -1,920 Descending FlightAware
09:13AM 32.5220 34.0190 128° Southeast 390 449 13,700 -1,500 Descending FlightAware
09:14AM 32.4780 34.0860 128° Southeast 374 430 12,700 -1,500 Descending FlightAware
09:15AM 32.4310 34.1570 128° Southeast 357 411 11,600 -1,500 Descending FlightAware
09:15AM 32.3910 34.2160 129° Southeast 346 398 10,700 -900 Descending FlightAware
09:16AM 32.3600 34.2650 127° Southeast 343 395 10,500 -600 Descending FlightAware
09:17AM 32.3220 34.3210 129° Southeast 296 341 9,900 -600 Descending FlightAware
09:17AM 32.3010 34.3540 127° Southeast 296 341 9,800 -120 Descending FlightAware
09:18AM 32.2840 34.3800 128° Southeast 296 341 9,800  Level FlightAware
09:18AM 32.2580 34.4190 128° Southeast 296 341 9,800  Level FlightAware
09:19AM 32.2400 34.4460 128° Southeast 296 341 9,800 -2,400 Level FlightAware
09:20AM 32.1860 34.5450 123° Southeast 6,100 -3,120 Descending FlightAware
09:20AM 32.1690 34.5780 121° Southeast 289 333 5,500 -1,440 Descending FlightAware
09:20AM 32.1560 34.6030 122° Southeast 289 333 5,100 -780 Descending FlightAware
09:21AM 32.1390 34.6340 123° Southeast 281 323 5,000 -120 Descending FlightAware
09:21AM 32.1170 34.6750 122° Southeast 270 311 5,000  Level FlightAware
09:22AM 32.0980 34.7100 123° Southeast 250 288 5,000  Level FlightAware
09:22AM 32.0830 34.7370 123° Southeast 247 284 5,000  Level FlightAware
09:23AM 32.0650 34.7670 125° Southeast 246 283 5,000 -240 Level FlightAware
09:23AM 32.0410 34.7970 133° Southeast 242 278 4,800 -360 Descending FlightAware
09:24AM 32.0230 34.8180 135° Southeast 240 276 4,700 -600 Descending FlightAware
09:24AM 31.9980 34.8460 136° Southeast 223 257 4,300 -1,080 Descending FlightAware
09:24AM 31.9810 34.8660 135° Southeast 226 260 3,700 -1,560 Descending FlightAware
09:25AM 31.9730 34.8880 113° Southeast 228 262 3,200 -1,260 Descending FlightAware
09:25AM 31.9800 34.9260 78° East 209 241 2,500 -1,020 Descending FlightAware
09:28AM 32.0000 34.8667 125° Southeast  Level FlightAware Approximate
09:29AM 32.0095 34.8769 125° Southeast  Level Estimated